sensor_id;sensor_type;location;lat;lon;timestamp;pressure;altitude;pressure_sealevel;temperature;humidity
6567;BME280;3317;43.994;22.878;2023-01-10T00:00:08;100365.34;;;3.90;78.58
6567;BME280;3317;43.994;22.878;2023-01-10T00:02:35;100368.03;;;3.90;78.90
6567;BME280;3317;43.994;22.878;2023-01-10T00:05:02;100361.06;;;3.88;78.67
6567;BME280;3317;43.994;22.878;2023-01-10T00:07:30;100369.00;;;3.89;79.16
6567;BME280;3317;43.994;22.878;2023-01-10T00:09:57;100357.94;;;3.94;78.67
6567;BME280;3317;43.994;22.878;2023-01-10T00:12:24;100368.91;;;3.91;78.16
6567;BME280;3317;43.994;22.878;2023-01-10T00:15:10;100378.66;;;3.92;78.13
6567;BME280;3317;43.994;22.878;2023-01-10T00:17:37;100336.00;;;3.77;78.13
6567;BME280;3317;43.994;22.878;2023-01-10T00:20:05;100367.94;;;3.92;77.73
6567;BME280;3317;43.994;22.878;2023-01-10T00:22:32;100351.94;;;3.90;77.87
6567;BME280;3317;43.994;22.878;2023-01-10T00:24:59;100353.41;;;3.94;78.13
6567;BME280;3317;43.994;22.878;2023-01-10T00:27:26;100334.28;;;3.88;78.51
6567;BME280;3317;43.994;22.878;2023-01-10T00:29:53;100328.91;;;3.76;79.53
6567;BME280;3317;43.994;22.878;2023-01-10T00:32:22;100333.66;;;3.73;80.28
6567;BME280;3317;43.994;22.878;2023-01-10T00:34:49;100344.13;;;3.76;80.50
6567;BME280;3317;43.994;22.878;2023-01-10T00:37:16;100354.75;;;3.77;80.66
6567;BME280;3317;43.994;22.878;2023-01-10T00:39:43;100333.06;;;3.80;80.60
6567;BME280;3317;43.994;22.878;2023-01-10T00:42:10;100334.66;;;3.83;80.63
6567;BME280;3317;43.994;22.878;2023-01-10T00:44:54;100322.09;;;3.84;80.70
6567;BME280;3317;43.994;22.878;2023-01-10T00:47:23;100327.34;;;3.85;80.95
6567;BME280;3317;43.994;22.878;2023-01-10T00:49:50;100321.84;;;3.87;80.92
6567;BME280;3317;43.994;22.878;2023-01-10T00:52:16;100314.41;;;3.90;80.39
6567;BME280;3317;43.994;22.878;2023-01-10T00:54:43;100332.47;;;3.88;79.98
6567;BME280;3317;43.994;22.878;2023-01-10T00:57:10;100317.81;;;3.92;79.41
6567;BME280;3317;43.994;22.878;2023-01-10T00:59:37;100341.97;;;3.92;78.77
6567;BME280;3317;43.994;22.878;2023-01-10T01:02:04;100344.53;;;3.94;78.59
6567;BME280;3317;43.994;22.878;2023-01-10T01:04:32;100327.47;;;3.95;78.21
6567;BME280;3317;43.994;22.878;2023-01-10T01:07:00;100323.09;;;3.94;77.76
6567;BME280;3317;43.994;22.878;2023-01-10T01:09:27;100317.00;;;3.92;78.34
6567;BME280;3317;43.994;22.878;2023-01-10T01:11:54;100320.66;;;3.91;78.54
6567;BME280;3317;43.994;22.878;2023-01-10T01:14:21;100321.47;;;3.91;78.38
6567;BME280;3317;43.994;22.878;2023-01-10T01:16:48;100337.56;;;3.91;79.01
6567;BME280;3317;43.994;22.878;2023-01-10T01:19:16;100335.63;;;3.93;78.02
6567;BME280;3317;43.994;22.878;2023-01-10T01:21:44;100331.13;;;3.94;77.56
6567;BME280;3317;43.994;22.878;2023-01-10T01:24:11;100320.66;;;3.91;77.58
6567;BME280;3317;43.994;22.878;2023-01-10T01:26:38;100325.13;;;3.90;78.52
6567;BME280;3317;43.994;22.878;2023-01-10T01:29:07;100317.97;;;3.91;78.23
6567;BME280;3317;43.994;22.878;2023-01-10T01:31:34;100332.22;;;3.91;78.40
6567;BME280;3317;43.994;22.878;2023-01-10T01:34:01;100316.84;;;3.93;78.13
6567;BME280;3317;43.994;22.878;2023-01-10T01:36:28;100318.69;;;3.93;78.29
6567;BME280;3317;43.994;22.878;2023-01-10T01:38:56;100311.38;;;3.95;78.53
6567;BME280;3317;43.994;22.878;2023-01-10T01:41:23;100320.88;;;3.88;79.06
6567;BME280;3317;43.994;22.878;2023-01-10T01:44:05;100319.16;;;3.87;79.73
6567;BME280;3317;43.994;22.878;2023-01-10T01:46:35;100325.28;;;3.89;79.85
6567;BME280;3317;43.994;22.878;2023-01-10T01:49:08;100349.16;;;3.92;79.67
6567;BME280;3317;43.994;22.878;2023-01-10T01:51:38;100324.53;;;3.87;79.20
6567;BME280;3317;43.994;22.878;2023-01-10T01:54:08;100314.56;;;3.89;79.55
6567;BME280;3317;43.994;22.878;2023-01-10T01:56:39;100326.22;;;3.88;79.88
6567;BME280;3317;43.994;22.878;2023-01-10T01:59:11;100327.09;;;3.88;80.36
6567;BME280;3317;43.994;22.878;2023-01-10T02:01:40;100308.34;;;3.88;80.36
6567;BME280;3317;43.994;22.878;2023-01-10T02:04:12;100304.19;;;3.84;80.81
6567;BME280;3317;43.994;22.878;2023-01-10T02:06:41;100310.38;;;3.85;81.11
6567;BME280;3317;43.994;22.878;2023-01-10T02:09:17;100304.19;;;3.84;80.89
6567;BME280;3317;43.994;22.878;2023-01-10T02:11:48;100290.91;;;3.83;80.32
6567;BME280;3317;43.994;22.878;2023-01-10T02:14:15;100300.28;;;3.88;80.16
6567;BME280;3317;43.994;22.878;2023-01-10T02:16:43;100292.97;;;3.90;80.16
6567;BME280;3317;43.994;22.878;2023-01-10T02:19:16;100291.28;;;3.89;80.16
6567;BME280;3317;43.994;22.878;2023-01-10T02:28:30;100299.06;;;3.70;81.48
6567;BME280;3317;43.994;22.878;2023-01-10T02:31:33;100299.19;;;3.68;82.02
6567;BME280;3317;43.994;22.878;2023-01-10T02:34:07;100308.81;;;3.71;81.97
6567;BME280;3317;43.994;22.878;2023-01-10T02:36:45;100311.34;;;3.72;81.87
6567;BME280;3317;43.994;22.878;2023-01-10T02:39:18;100315.38;;;3.66;82.41
6567;BME280;3317;43.994;22.878;2023-01-10T02:41:52;100303.06;;;3.64;82.41
6567;BME280;3317;43.994;22.878;2023-01-10T02:44:27;100308.91;;;3.69;82.43
6567;BME280;3317;43.994;22.878;2023-01-10T02:46:56;100302.34;;;3.73;81.94
6567;BME280;3317;43.994;22.878;2023-01-10T02:49:24;100320.88;;;3.76;82.07
6567;BME280;3317;43.994;22.878;2023-01-10T02:51:51;100315.13;;;3.81;81.50
6567;BME280;3317;43.994;22.878;2023-01-10T02:54:20;100321.25;;;3.83;81.25
6567;BME280;3317;43.994;22.878;2023-01-10T03:00:17;100306.38;;;3.90;80.79
6567;BME280;3317;43.994;22.878;2023-01-10T03:02:55;100311.00;;;3.88;80.24
6567;BME280;3317;43.994;22.878;2023-01-10T03:05:38;100304.94;;;3.98;79.93
6567;BME280;3317;43.994;22.878;2023-01-10T03:08:17;100297.72;;;3.98;79.37
6567;BME280;3317;43.994;22.878;2023-01-10T03:10:53;100279.56;;;3.90;79.09
6567;BME280;3317;43.994;22.878;2023-01-10T03:13:26;100287.97;;;3.97;79.63
6567;BME280;3317;43.994;22.878;2023-01-10T03:15:56;100284.31;;;3.98;79.56
6567;BME280;3317;43.994;22.878;2023-01-10T03:18:32;100293.22;;;3.99;79.26
6567;BME280;3317;43.994;22.878;2023-01-10T03:21:03;100285.81;;;4.02;79.22
6567;BME280;3317;43.994;22.878;2023-01-10T03:23:33;100279.69;;;4.00;79.02
6567;BME280;3317;43.994;22.878;2023-01-10T03:26:01;100264.56;;;3.99;79.23
6567;BME280;3317;43.994;22.878;2023-01-10T03:28:31;100264.47;;;3.89;78.59
6567;BME280;3317;43.994;22.878;2023-01-10T03:31:03;100278.84;;;4.00;78.91
6567;BME280;3317;43.994;22.878;2023-01-10T03:33:32;100297.59;;;4.00;78.40
6567;BME280;3317;43.994;22.878;2023-01-10T03:36:08;100298.59;;;3.99;78.60
6567;BME280;3317;43.994;22.878;2023-01-10T03:38:45;100290.53;;;3.99;78.60
6567;BME280;3317;43.994;22.878;2023-01-10T03:41:15;100293.94;;;4.01;78.95
6567;BME280;3317;43.994;22.878;2023-01-10T03:43:51;100264.22;;;3.92;78.88
6567;BME280;3317;43.994;22.878;2023-01-10T03:46:42;100284.81;;;4.03;79.35
6567;BME280;3317;43.994;22.878;2023-01-10T03:49:12;100267.97;;;4.01;78.53
6567;BME280;3317;43.994;22.878;2023-01-10T03:51:42;100279.19;;;4.06;77.98
6567;BME280;3317;43.994;22.878;2023-01-10T03:54:10;100275.66;;;4.06;77.71
6567;BME280;3317;43.994;22.878;2023-01-10T03:56:44;100271.28;;;4.05;77.79
6567;BME280;3317;43.994;22.878;2023-01-10T03:59:11;100276.78;;;4.03;77.68
6567;BME280;3317;43.994;22.878;2023-01-10T04:01:38;100300.53;;;4.08;77.58
6567;BME280;3317;43.994;22.878;2023-01-10T04:04:05;100297.97;;;4.06;77.68
6567;BME280;3317;43.994;22.878;2023-01-10T04:06:32;100274.56;;;3.97;78.05
6567;BME280;3317;43.994;22.878;2023-01-10T04:09:00;100288.69;;;4.11;78.22
6567;BME280;3317;43.994;22.878;2023-01-10T04:11:27;100290.28;;;4.13;78.12
6567;BME280;3317;43.994;22.878;2023-01-10T04:13:54;100311.75;;;4.13;78.00
6567;BME280;3317;43.994;22.878;2023-01-10T04:16:21;100315.16;;;4.15;78.30
6567;BME280;3317;43.994;22.878;2023-01-10T04:18:48;100308.69;;;4.06;78.38
6567;BME280;3317;43.994;22.878;2023-01-10T04:21:15;100301.75;;;4.15;78.69
6567;BME280;3317;43.994;22.878;2023-01-10T04:23:42;100285.53;;;4.17;78.81
6567;BME280;3317;43.994;22.878;2023-01-10T04:26:10;100259.69;;;4.16;78.48
6567;BME280;3317;43.994;22.878;2023-01-10T04:28:37;100275.53;;;4.19;78.27
6567;BME280;3317;43.994;22.878;2023-01-10T04:31:05;100271.25;;;4.16;78.48
6567;BME280;3317;43.994;22.878;2023-01-10T04:33:31;100263.94;;;4.18;78.14
6567;BME280;3317;43.994;22.878;2023-01-10T04:35:58;100249.81;;;4.16;77.53
6567;BME280;3317;43.994;22.878;2023-01-10T04:38:25;100233.38;;;4.09;77.62
6567;BME280;3317;43.994;22.878;2023-01-10T04:40:53;100234.44;;;4.18;77.92
6567;BME280;3317;43.994;22.878;2023-01-10T04:43:23;100216.16;;;4.23;77.50
6567;BME280;3317;43.994;22.878;2023-01-10T04:45:50;100197.88;;;4.17;76.99
6567;BME280;3317;43.994;22.878;2023-01-10T04:48:17;100201.19;;;4.09;78.44
6567;BME280;3317;43.994;22.878;2023-01-10T04:50:48;100214.59;;;4.09;79.02
6567;BME280;3317;43.994;22.878;2023-01-10T04:53:16;100210.94;;;4.11;79.09
6567;BME280;3317;43.994;22.878;2023-01-10T04:55:43;100214.34;;;4.13;78.56
6567;BME280;3317;43.994;22.878;2023-01-10T04:58:09;100236.66;;;4.13;77.84
6567;BME280;3317;43.994;22.878;2023-01-10T05:00:38;100263.59;;;4.12;77.52
6567;BME280;3317;43.994;22.878;2023-01-10T05:03:05;100267.13;;;4.12;78.05
6567;BME280;3317;43.994;22.878;2023-01-10T05:05:32;100272.34;;;4.14;78.46
6567;BME280;3317;43.994;22.878;2023-01-10T05:07:59;100293.81;;;4.14;78.59
6567;BME280;3317;43.994;22.878;2023-01-10T05:10:26;100308.81;;;4.16;78.98
6567;BME280;3317;43.994;22.878;2023-01-10T05:12:52;100315.03;;;4.17;78.93
6567;BME280;3317;43.994;22.878;2023-01-10T05:15:19;100302.34;;;4.19;78.19
6567;BME280;3317;43.994;22.878;2023-01-10T05:17:49;100279.94;;;4.08;77.92
6567;BME280;3317;43.994;22.878;2023-01-10T05:20:18;100298.69;;;4.20;77.61
6567;BME280;3317;43.994;22.878;2023-01-10T05:22:45;100315.53;;;4.22;76.97
6567;BME280;3317;43.994;22.878;2023-01-10T05:25:13;100330.63;;;4.23;76.52
6567;BME280;3317;43.994;22.878;2023-01-10T05:27:40;100316.75;;;4.18;77.15
6567;BME280;3317;43.994;22.878;2023-01-10T05:30:10;100310.66;;;4.16;77.65
6567;BME280;3317;43.994;22.878;2023-01-10T05:32:37;100296.00;;;4.20;77.77
6567;BME280;3317;43.994;22.878;2023-01-10T05:35:07;100270.63;;;4.24;77.51
6567;BME280;3317;43.994;22.878;2023-01-10T05:37:34;100191.19;;;4.00;77.07
6567;BME280;3317;43.994;22.878;2023-01-10T05:40:01;100224.06;;;4.25;76.33
6567;BME280;3317;43.994;22.878;2023-01-10T05:42:28;100234.78;;;4.25;76.63
6567;BME280;3317;43.994;22.878;2023-01-10T05:44:55;100240.03;;;4.27;76.75
6567;BME280;3317;43.994;22.878;2023-01-10T05:47:22;100242.72;;;4.27;76.61
6567;BME280;3317;43.994;22.878;2023-01-10T05:49:49;100260.41;;;4.29;76.79
6567;BME280;3317;43.994;22.878;2023-01-10T05:52:18;100258.72;;;4.28;76.78
6567;BME280;3317;43.994;22.878;2023-01-10T05:54:45;100267.69;;;4.27;77.42
6567;BME280;3317;43.994;22.878;2023-01-10T05:57:12;100273.69;;;4.31;77.74
6567;BME280;3317;43.994;22.878;2023-01-10T05:59:39;100268.91;;;4.34;77.23
6567;BME280;3317;43.994;22.878;2023-01-10T06:02:06;100266.97;;;4.36;76.64
6567;BME280;3317;43.994;22.878;2023-01-10T06:04:33;100268.09;;;4.34;76.00
6567;BME280;3317;43.994;22.878;2023-01-10T06:07:01;100270.16;;;4.30;75.88
6567;BME280;3317;43.994;22.878;2023-01-10T06:09:30;100281.88;;;4.29;76.26
6567;BME280;3317;43.994;22.878;2023-01-10T06:11:57;100281.13;;;4.27;76.30
6567;BME280;3317;43.994;22.878;2023-01-10T06:14:23;100298.94;;;4.28;75.94
6567;BME280;3317;43.994;22.878;2023-01-10T06:16:50;100305.88;;;4.31;75.81
6567;BME280;3317;43.994;22.878;2023-01-10T06:19:17;100309.53;;;4.30;75.90
6567;BME280;3317;43.994;22.878;2023-01-10T06:21:44;100305.25;;;4.27;76.51
6567;BME280;3317;43.994;22.878;2023-01-10T06:24:11;100313.19;;;4.29;76.79
6567;BME280;3317;43.994;22.878;2023-01-10T06:26:39;100327.34;;;4.31;76.96
6567;BME280;3317;43.994;22.878;2023-01-10T06:29:06;100316.75;;;4.29;77.53
6567;BME280;3317;43.994;22.878;2023-01-10T06:31:33;100316.84;;;4.28;78.10
6567;BME280;3317;43.994;22.878;2023-01-10T06:34:00;100316.59;;;4.31;79.00
6567;BME280;3317;43.994;22.878;2023-01-10T06:36:27;100268.13;;;4.11;78.48
6567;BME280;3317;43.994;22.878;2023-01-10T06:38:54;100295.63;;;4.36;78.03
6567;BME280;3317;43.994;22.878;2023-01-10T06:41:21;100297.44;;;4.35;77.66
6567;BME280;3317;43.994;22.878;2023-01-10T06:43:49;100309.06;;;4.36;77.12
6567;BME280;3317;43.994;22.878;2023-01-10T06:46:17;100304.06;;;4.31;77.20
6567;BME280;3317;43.994;22.878;2023-01-10T06:48:45;100305.66;;;4.34;78.01
6567;BME280;3317;43.994;22.878;2023-01-10T06:51:14;100316.13;;;4.37;78.20
6567;BME280;3317;43.994;22.878;2023-01-10T06:53:41;100319.91;;;4.34;78.42
6567;BME280;3317;43.994;22.878;2023-01-10T06:56:09;100324.91;;;4.39;78.79
6567;BME280;3317;43.994;22.878;2023-01-10T06:58:37;100328.41;;;4.40;79.17
6567;BME280;3317;43.994;22.878;2023-01-10T07:01:06;100342.69;;;4.40;79.47
6567;BME280;3317;43.994;22.878;2023-01-10T07:03:33;100330.16;;;4.41;79.47
6567;BME280;3317;43.994;22.878;2023-01-10T07:06:01;100336.25;;;4.43;79.37
6567;BME280;3317;43.994;22.878;2023-01-10T07:08:28;100343.56;;;4.41;79.72
6567;BME280;3317;43.994;22.878;2023-01-10T07:10:57;100327.94;;;4.34;80.16
6567;BME280;3317;43.994;22.878;2023-01-10T07:13:25;100350.38;;;4.45;80.41
6567;BME280;3317;43.994;22.878;2023-01-10T07:15:52;100341.47;;;4.44;80.06
6567;BME280;3317;43.994;22.878;2023-01-10T07:18:27;100339.66;;;4.45;79.93
6567;BME280;3317;43.994;22.878;2023-01-10T07:20:54;100354.78;;;4.46;80.16
6567;BME280;3317;43.994;22.878;2023-01-10T07:23:21;100347.44;;;4.48;80.28
6567;BME280;3317;43.994;22.878;2023-01-10T07:25:48;100355.50;;;4.48;79.97
6567;BME280;3317;43.994;22.878;2023-01-10T07:28:15;100358.06;;;4.49;79.87
6567;BME280;3317;43.994;22.878;2023-01-10T07:30:42;100346.97;;;4.43;79.78
6567;BME280;3317;43.994;22.878;2023-01-10T07:33:09;100331.00;;;4.30;79.77
6567;BME280;3317;43.994;22.878;2023-01-10T07:35:38;100362.56;;;4.49;80.00
6567;BME280;3317;43.994;22.878;2023-01-10T07:38:05;100350.84;;;4.50;79.84
6567;BME280;3317;43.994;22.878;2023-01-10T07:40:33;100360.75;;;4.49;79.42
6567;BME280;3317;43.994;22.878;2023-01-10T07:43:01;100368.66;;;4.51;79.70
6567;BME280;3317;43.994;22.878;2023-01-10T07:45:29;100371.34;;;4.51;79.90
6567;BME280;3317;43.994;22.878;2023-01-10T07:47:56;100380.25;;;4.51;80.04
6567;BME280;3317;43.994;22.878;2023-01-10T07:50:23;100371.22;;;4.53;80.26
6567;BME280;3317;43.994;22.878;2023-01-10T07:52:52;100370.38;;;4.52;80.61
6567;BME280;3317;43.994;22.878;2023-01-10T07:55:19;100374.16;;;4.49;80.77
6567;BME280;3317;43.994;22.878;2023-01-10T07:57:46;100352.69;;;4.49;81.16
6567;BME280;3317;43.994;22.878;2023-01-10T08:00:16;100346.22;;;4.52;80.81
6567;BME280;3317;43.994;22.878;2023-01-10T08:02:43;100353.41;;;4.51;80.61
6567;BME280;3317;43.994;22.878;2023-01-10T08:05:10;100342.19;;;4.46;80.71
6567;BME280;3317;43.994;22.878;2023-01-10T08:07:37;100363.19;;;4.53;80.76
6567;BME280;3317;43.994;22.878;2023-01-10T08:10:07;100364.88;;;4.54;81.40
6567;BME280;3317;43.994;22.878;2023-01-10T08:12:34;100372.94;;;4.54;81.34
6567;BME280;3317;43.994;22.878;2023-01-10T08:15:01;100371.22;;;4.53;81.85
6567;BME280;3317;43.994;22.878;2023-01-10T08:17:28;100373.66;;;4.56;82.04
6567;BME280;3317;43.994;22.878;2023-01-10T08:19:55;100363.66;;;4.58;81.96
6567;BME280;3317;43.994;22.878;2023-01-10T08:22:22;100337.56;;;4.48;81.91
6567;BME280;3317;43.994;22.878;2023-01-10T08:24:48;100356.22;;;4.61;81.27
6567;BME280;3317;43.994;22.878;2023-01-10T08:27:17;100352.53;;;4.62;81.04
6567;BME280;3317;43.994;22.878;2023-01-10T08:29:44;100345.09;;;4.66;80.69
6567;BME280;3317;43.994;22.878;2023-01-10T08:32:11;100339.72;;;4.66;79.64
6567;BME280;3317;43.994;22.878;2023-01-10T08:34:38;100338.88;;;4.65;79.86
6567;BME280;3317;43.994;22.878;2023-01-10T08:37:05;100336.19;;;4.65;79.52
6567;BME280;3317;43.994;22.878;2023-01-10T08:39:33;100348.50;;;4.68;79.61
6567;BME280;3317;43.994;22.878;2023-01-10T08:42:00;100356.44;;;4.70;79.29
6567;BME280;3317;43.994;22.878;2023-01-10T08:44:29;100360.84;;;4.71;79.73
6567;BME280;3317;43.994;22.878;2023-01-10T08:46:56;100352.63;;;4.72;80.12
6567;BME280;3317;43.994;22.878;2023-01-10T08:49:23;100349.84;;;4.74;79.40
6567;BME280;3317;43.994;22.878;2023-01-10T08:51:50;100352.41;;;4.75;79.85
6567;BME280;3317;43.994;22.878;2023-01-10T08:54:17;100366.56;;;4.77;79.58
6567;BME280;3317;43.994;22.878;2023-01-10T08:56:44;100360.22;;;4.78;79.77
6567;BME280;3317;43.994;22.878;2023-01-10T08:59:11;100353.00;;;4.79;80.59
6567;BME280;3317;43.994;22.878;2023-01-10T09:01:39;100349.47;;;4.78;80.81
6567;BME280;3317;43.994;22.878;2023-01-10T09:04:06;100361.53;;;4.84;81.10
6567;BME280;3317;43.994;22.878;2023-01-10T09:06:33;100364.09;;;4.86;80.87
6567;BME280;3317;43.994;22.878;2023-01-10T09:09:00;100366.66;;;4.87;80.71
6567;BME280;3317;43.994;22.878;2023-01-10T09:11:27;100364.69;;;4.89;80.33
6567;BME280;3317;43.994;22.878;2023-01-10T09:13:54;100368.09;;;4.91;80.34
6567;BME280;3317;43.994;22.878;2023-01-10T09:16:20;100355.44;;;4.82;80.50
6567;BME280;3317;43.994;22.878;2023-01-10T09:18:49;100375.06;;;4.94;79.70
6567;BME280;3317;43.994;22.878;2023-01-10T09:21:16;100367.59;;;4.98;79.72
6567;BME280;3317;43.994;22.878;2023-01-10T09:23:43;100363.22;;;4.97;79.54
6567;BME280;3317;43.994;22.878;2023-01-10T09:26:10;100362.22;;;4.98;79.90
6567;BME280;3317;43.994;22.878;2023-01-10T09:28:37;100357.59;;;5.00;80.26
6567;BME280;3317;43.994;22.878;2023-01-10T09:31:06;100342.97;;;4.92;80.13
6567;BME280;3317;43.994;22.878;2023-01-10T09:33:33;100352.94;;;5.02;80.55
6567;BME280;3317;43.994;22.878;2023-01-10T09:36:02;100333.16;;;5.03;80.52
6567;BME280;3317;43.994;22.878;2023-01-10T09:38:29;100335.59;;;5.06;80.77
6567;BME280;3317;43.994;22.878;2023-01-10T09:41:09;100329.25;;;5.07;80.68
6567;BME280;3317;43.994;22.878;2023-01-10T09:43:47;100333.75;;;5.06;80.34
6567;BME280;3317;43.994;22.878;2023-01-10T09:46:21;100331.06;;;5.06;80.68
6567;BME280;3317;43.994;22.878;2023-01-10T09:48:55;100332.66;;;5.09;80.33
6567;BME280;3317;43.994;22.878;2023-01-10T09:51:34;100323.63;;;5.10;80.63
6567;BME280;3317;43.994;22.878;2023-01-10T09:54:04;100311.88;;;5.11;80.59
6567;BME280;3317;43.994;22.878;2023-01-10T09:56:32;100310.06;;;5.12;80.20
6567;BME280;3317;43.994;22.878;2023-01-10T09:59:01;100310.91;;;5.12;80.41
6567;BME280;3317;43.994;22.878;2023-01-10T10:01:32;100296.88;;;5.08;80.85
6567;BME280;3317;43.994;22.878;2023-01-10T10:04:13;100294.50;;;5.15;80.75
6567;BME280;3317;43.994;22.878;2023-01-10T10:06:42;100295.22;;;5.17;80.70
6567;BME280;3317;43.994;22.878;2023-01-10T10:09:11;100293.28;;;5.19;80.93
6567;BME280;3317;43.994;22.878;2023-01-10T10:11:55;100292.31;;;5.20;80.70
6567;BME280;3317;43.994;22.878;2023-01-10T10:14:35;100285.97;;;5.21;80.46
6567;BME280;3317;43.994;22.878;2023-01-10T10:17:18;100282.41;;;5.21;80.24
6567;BME280;3317;43.994;22.878;2023-01-10T10:20:00;100289.34;;;5.24;80.51
6567;BME280;3317;43.994;22.878;2023-01-10T10:22:36;100284.97;;;5.22;81.29
6567;BME280;3317;43.994;22.878;2023-01-10T10:25:16;100276.66;;;5.26;81.24
6567;BME280;3317;43.994;22.878;2023-01-10T10:28:00;100277.50;;;5.26;81.56
6567;BME280;3317;43.994;22.878;2023-01-10T10:30:42;100267.59;;;5.27;82.40
6567;BME280;3317;43.994;22.878;2023-01-10T10:33:28;100268.31;;;5.29;82.39
6567;BME280;3317;43.994;22.878;2023-01-10T10:36:03;100263.81;;;5.29;82.14
6567;BME280;3317;43.994;22.878;2023-01-10T10:38:35;100241.13;;;5.22;82.43
6567;BME280;3317;43.994;22.878;2023-01-10T10:41:03;100240.28;;;5.21;81.72
6567;BME280;3317;43.994;22.878;2023-01-10T10:43:39;100248.28;;;5.33;82.17
6567;BME280;3317;43.994;22.878;2023-01-10T10:46:08;100255.19;;;5.35;82.21
6567;BME280;3317;43.994;22.878;2023-01-10T10:48:40;100256.91;;;5.36;82.45
6567;BME280;3317;43.994;22.878;2023-01-10T10:51:13;100250.41;;;5.39;82.36
6567;BME280;3317;43.994;22.878;2023-01-10T10:53:44;100252.13;;;5.40;82.92
6567;BME280;3317;43.994;22.878;2023-01-10T10:56:15;100248.59;;;5.40;82.29
6567;BME280;3317;43.994;22.878;2023-01-10T10:58:44;100250.31;;;5.41;82.58
6567;BME280;3317;43.994;22.878;2023-01-10T11:01:14;100240.53;;;5.40;82.82
6567;BME280;3317;43.994;22.878;2023-01-10T11:03:45;100237.47;;;5.44;82.94
6567;BME280;3317;43.994;22.878;2023-01-10T11:06:14;100230.22;;;5.45;83.16
6567;BME280;3317;43.994;22.878;2023-01-10T11:08:45;100229.53;;;5.43;83.45
6567;BME280;3317;43.994;22.878;2023-01-10T11:11:18;100222.59;;;5.50;83.85
6567;BME280;3317;43.994;22.878;2023-01-10T11:13:49;100227.97;;;5.50;83.82
6567;BME280;3317;43.994;22.878;2023-01-10T11:16:29;100217.13;;;5.52;83.57
6567;BME280;3317;43.994;22.878;2023-01-10T11:19:19;100142.22;;;5.06;83.06
6567;BME280;3317;43.994;22.878;2023-01-10T11:21:49;100216.84;;;5.55;82.57
6567;BME280;3317;43.994;22.878;2023-01-10T11:24:22;100219.53;;;5.55;82.95
6567;BME280;3317;43.994;22.878;2023-01-10T11:26:51;100219.28;;;5.58;83.07
6567;BME280;3317;43.994;22.878;2023-01-10T11:29:21;100224.66;;;5.58;82.64
6567;BME280;3317;43.994;22.878;2023-01-10T11:31:50;100222.81;;;5.58;82.90
6567;BME280;3317;43.994;22.878;2023-01-10T11:34:22;100225.22;;;5.61;82.89
6567;BME280;3317;43.994;22.878;2023-01-10T11:36:58;100224.22;;;5.62;83.17
6567;BME280;3317;43.994;22.878;2023-01-10T11:39:28;100217.03;;;5.63;83.21
6567;BME280;3317;43.994;22.878;2023-01-10T11:41:55;100224.97;;;5.64;83.12
6567;BME280;3317;43.994;22.878;2023-01-10T11:44:25;100222.28;;;5.64;83.28
6567;BME280;3317;43.994;22.878;2023-01-10T11:46:54;100229.91;;;5.69;83.22
6567;BME280;3317;43.994;22.878;2023-01-10T11:49:34;100223.72;;;5.69;83.34
6567;BME280;3317;43.994;22.878;2023-01-10T11:52:04;100211.94;;;5.60;83.75
6567;BME280;3317;43.994;22.878;2023-01-10T11:54:33;100228.09;;;5.70;83.68
6567;BME280;3317;43.994;22.878;2023-01-10T11:57:03;100237.28;;;5.67;83.77
6567;BME280;3317;43.994;22.878;2023-01-10T11:59:32;100229.91;;;5.69;83.40
6567;BME280;3317;43.994;22.878;2023-01-10T12:02:01;100231.91;;;5.67;83.59
6567;BME280;3317;43.994;22.878;2023-01-10T12:04:31;100235.28;;;5.69;83.26
6567;BME280;3317;43.994;22.878;2023-01-10T12:07:02;100217.16;;;5.61;83.81
6567;BME280;3317;43.994;22.878;2023-01-10T12:09:34;100236.16;;;5.70;83.55
6567;BME280;3317;43.994;22.878;2023-01-10T12:12:03;100222.81;;;5.58;84.37
6567;BME280;3317;43.994;22.878;2023-01-10T12:14:30;100231.06;;;5.67;84.78
6567;BME280;3317;43.994;22.878;2023-01-10T12:16:58;100237.44;;;5.66;85.04
6567;BME280;3317;43.994;22.878;2023-01-10T12:19:27;100235.44;;;5.68;84.96
6567;BME280;3317;43.994;22.878;2023-01-10T12:21:55;100229.22;;;5.67;85.44
6567;BME280;3317;43.994;22.878;2023-01-10T12:24:28;100225.53;;;5.68;85.33
6567;BME280;3317;43.994;22.878;2023-01-10T12:27:00;100228.97;;;5.70;85.30
6567;BME280;3317;43.994;22.878;2023-01-10T12:29:31;100178.97;;;5.36;85.63
6567;BME280;3317;43.994;22.878;2023-01-10T12:32:00;100236.16;;;5.70;86.05
6567;BME280;3317;43.994;22.878;2023-01-10T12:34:34;100233.34;;;5.71;85.73
6567;BME280;3317;43.994;22.878;2023-01-10T12:37:10;100237.03;;;5.70;85.79
6567;BME280;3317;43.994;22.878;2023-01-10T12:39:42;100239.56;;;5.72;85.84
6567;BME280;3317;43.994;22.878;2023-01-10T12:42:21;100240.44;;;5.72;86.10
6567;BME280;3317;43.994;22.878;2023-01-10T12:45:12;100245.94;;;5.71;86.35
6567;BME280;3317;43.994;22.878;2023-01-10T12:47:52;100247.78;;;5.70;86.71
6567;BME280;3317;43.994;22.878;2023-01-10T12:50:23;100243.25;;;5.71;87.21
6567;BME280;3317;43.994;22.878;2023-01-10T12:52:58;100248.63;;;5.71;87.33
6567;BME280;3317;43.994;22.878;2023-01-10T12:55:29;100200.78;;;5.43;87.47
6567;BME280;3317;43.994;22.878;2023-01-10T12:58:00;100248.22;;;5.75;87.10
6567;BME280;3317;43.994;22.878;2023-01-10T13:00:32;100249.91;;;5.76;87.10
6567;BME280;3317;43.994;22.878;2023-01-10T13:03:04;100248.94;;;5.77;87.22
6567;BME280;3317;43.994;22.878;2023-01-10T13:05:35;100250.78;;;5.77;87.33
6567;BME280;3317;43.994;22.878;2023-01-10T13:08:04;100242.56;;;5.78;87.58
6567;BME280;3317;43.994;22.878;2023-01-10T13:10:34;100248.81;;;5.79;87.59
6567;BME280;3317;43.994;22.878;2023-01-10T13:13:12;100233.78;;;5.76;87.92
6567;BME280;3317;43.994;22.878;2023-01-10T13:15:47;100237.78;;;5.82;87.81
6567;BME280;3317;43.994;22.878;2023-01-10T13:18:23;100241.06;;;5.86;87.84
6567;BME280;3317;43.994;22.878;2023-01-10T13:21:02;100235.50;;;5.87;87.76
6567;BME280;3317;43.994;22.878;2023-01-10T13:23:30;100238.94;;;5.89;87.28
6567;BME280;3317;43.994;22.878;2023-01-10T13:26:04;100180.78;;;5.57;86.81
6567;BME280;3317;43.994;22.878;2023-01-10T13:28:36;100240.50;;;5.92;87.12
6567;BME280;3317;43.994;22.878;2023-01-10T13:31:06;100239.50;;;5.93;86.83
6567;BME280;3317;43.994;22.878;2023-01-10T13:33:39;100241.19;;;5.94;86.87